createdAt,value
2023-03-31T00:02:23.391Z,99179.31
2023-03-31T00:04:53.242Z,99194.03
2023-03-31T00:07:22.140Z,99200.88
2023-03-31T00:09:49.246Z,99168.94
2023-03-31T00:12:17.273Z,99181.81
2023-03-31T00:14:44.356Z,99186.69
2023-03-31T00:17:11.585Z,99166.94
2023-03-31T00:19:40.251Z,99167.94
2023-03-31T00:22:08.056Z,99162.75
2023-03-31T00:24:35.635Z,99152.50
2023-03-31T00:27:03.455Z,99151.66
2023-03-31T00:29:31.467Z,99157.16
2023-03-31T00:31:59.866Z,99148.66
2023-03-31T00:34:27.714Z,99149.31
2023-03-31T00:36:56.567Z,99157.16
2023-03-31T00:39:24.778Z,99151.13
2023-03-31T00:41:51.897Z,99164.03
2023-03-31T00:44:24.406Z,99156.81
2023-03-31T00:46:52.512Z,99162.66
2023-03-31T00:49:45.025Z,99167.84
2023-03-31T00:52:13.435Z,99149.50
2023-03-31T00:54:42.945Z,99163.44
2023-03-31T00:57:10.477Z,99155.28
2023-03-31T00:59:40.704Z,99153.47
2023-03-31T01:02:07.842Z,99151.13
2023-03-31T01:04:37.838Z,99147.81
2023-03-31T01:07:17.053Z,99141.28
2023-03-31T01:09:47.421Z,99143.31
2023-03-31T01:12:16.090Z,99141.63
2023-03-31T01:14:43.980Z,99140.25
2023-03-31T01:17:11.158Z,99128.06
2023-03-31T01:19:53.494Z,99113.00
2023-03-31T01:22:45.967Z,99110.38
2023-03-31T01:25:42.719Z,99100.69
2023-03-31T01:28:26.632Z,99087.31
2023-03-31T01:31:09.946Z,99084.66
2023-03-31T01:33:55.868Z,99091.97
2023-03-31T01:36:32.810Z,99097.31
2023-03-31T01:39:13.617Z,99097.00
2023-03-31T01:41:46.781Z,99089.00
2023-03-31T01:44:29.122Z,99088.00
2023-03-31T01:46:56.224Z,99086.31
2023-03-31T01:49:32.270Z,99086.31
2023-03-31T01:52:25.760Z,99078.31
2023-03-31T01:55:08.205Z,99066.97
2023-03-31T01:57:40.394Z,99065.66
2023-03-31T02:00:09.665Z,99080.69
2023-03-31T02:02:48.187Z,99088.00
2023-03-31T02:05:18.979Z,99086.00
2023-03-31T02:07:58.747Z,99096.69
2023-03-31T02:10:29.511Z,99087.66
2023-03-31T02:13:00.745Z,99097.19
2023-03-31T02:15:29.741Z,99104.03
2023-03-31T02:18:00.088Z,99108.88
2023-03-31T02:20:29.024Z,99098.06
2023-03-31T02:22:57.135Z,99108.06
2023-03-31T02:25:28.893Z,99111.28
2023-03-31T02:28:01.760Z,99091.06
2023-03-31T02:30:31.801Z,99095.59
2023-03-31T02:32:59.797Z,99094.91
2023-03-31T02:35:26.992Z,99094.25
2023-03-31T02:37:59.107Z,99086.97
2023-03-31T02:40:30.737Z,99082.59
2023-03-31T02:42:59.751Z,99085.81
2023-03-31T02:45:46.368Z,99091.66
2023-03-31T02:48:17.283Z,99081.16
2023-03-31T02:51:03.349Z,99084.19
2023-03-31T02:53:43.497Z,99080.00
2023-03-31T02:56:13.594Z,99082.69
2023-03-31T02:58:48.961Z,99093.00
2023-03-31T03:01:31.583Z,99082.69
2023-03-31T03:04:01.824Z,99071.66
2023-03-31T03:06:31.748Z,99072.34
2023-03-31T03:09:18.425Z,99051.66
2023-03-31T03:12:03.562Z,99035.09
2023-03-31T03:14:44.609Z,99030.13
2023-03-31T03:17:18.592Z,99031.44
2023-03-31T03:19:50.674Z,99034.44
2023-03-31T03:22:17.704Z,99034.94
2023-03-31T03:24:45.020Z,99032.44
2023-03-31T03:27:12.179Z,99031.13
2023-03-31T03:29:39.225Z,99033.78
2023-03-31T03:32:06.258Z,99034.78
2023-03-31T03:34:33.376Z,99031.75
2023-03-31T03:37:00.531Z,99023.91
2023-03-31T03:39:27.600Z,99023.25
2023-03-31T03:41:54.736Z,99021.38
2023-03-31T03:44:21.810Z,99023.72
2023-03-31T03:46:49.098Z,99013.19
2023-03-31T03:49:16.365Z,99010.38
2023-03-31T03:51:43.417Z,99013.88
2023-03-31T03:54:10.605Z,99000.84
2023-03-31T03:56:37.758Z,99000.50
2023-03-31T03:59:04.875Z,99000.00
2023-03-31T04:01:32.002Z,99000.84
2023-03-31T04:03:59.024Z,98988.66
2023-03-31T04:06:26.149Z,98996.69
2023-03-31T04:08:53.194Z,98993.00
2023-03-31T04:11:20.377Z,98986.63
2023-03-31T04:13:47.545Z,98983.78
2023-03-31T04:16:14.842Z,98977.97
2023-03-31T04:18:42.808Z,98979.31
2023-03-31T04:21:12.397Z,98971.97
2023-03-31T04:23:46.546Z,98964.78
2023-03-31T04:26:14.181Z,98953.91
2023-03-31T04:28:42.925Z,98953.75
2023-03-31T04:31:15.478Z,98946.53
2023-03-31T04:33:46.128Z,98941.69
2023-03-31T04:36:19.280Z,98941.69
2023-03-31T04:38:56.579Z,98932.84
2023-03-31T04:41:24.360Z,98924.16
2023-03-31T04:43:51.460Z,98921.84
2023-03-31T04:46:18.695Z,98898.97
2023-03-31T04:48:45.767Z,98879.41
2023-03-31T04:51:15.502Z,98867.91
2023-03-31T04:53:42.629Z,98862.53
2023-03-31T04:56:09.871Z,98865.38
2023-03-31T04:58:37.177Z,98860.03
2023-03-31T05:01:06.457Z,98854.06
2023-03-31T05:03:34.308Z,98854.22
2023-03-31T05:06:01.980Z,98849.03
2023-03-31T05:08:29.386Z,98848.88
2023-03-31T05:10:56.488Z,98837.34
2023-03-31T05:13:23.670Z,98831.50
2023-03-31T05:15:51.716Z,98825.38
2023-03-31T05:18:18.875Z,98829.88
2023-03-31T05:20:46.471Z,98831.72
2023-03-31T05:23:13.572Z,98821.19
2023-03-31T05:25:42.314Z,98818.69
2023-03-31T05:28:10.231Z,98809.66
2023-03-31T05:30:37.277Z,98816.50
2023-03-31T05:33:04.649Z,98809.34
2023-03-31T05:35:31.799Z,98816.31
2023-03-31T05:37:58.938Z,98805.63
2023-03-31T05:40:26.062Z,98801.94
2023-03-31T05:42:53.132Z,98808.13
2023-03-31T05:45:20.369Z,98795.78
2023-03-31T05:47:47.516Z,98795.59
2023-03-31T05:50:15.019Z,98793.94
2023-03-31T05:52:42.192Z,98791.94
2023-03-31T05:55:09.551Z,98791.94
2023-03-31T05:57:36.686Z,98777.56
2023-03-31T06:00:06.125Z,98786.88
2023-03-31T06:02:35.765Z,98790.22
2023-03-31T06:05:03.622Z,98793.56
2023-03-31T06:07:30.807Z,98788.22
2023-03-31T06:09:57.892Z,98792.56
2023-03-31T06:12:25.078Z,98792.38
2023-03-31T06:14:52.108Z,98779.84
2023-03-31T06:17:19.139Z,98769.81
2023-03-31T06:19:46.174Z,98769.63
2023-03-31T06:22:13.310Z,98777.28
2023-03-31T06:24:40.363Z,98777.13
2023-03-31T06:27:07.396Z,98782.75
2023-03-31T06:29:34.835Z,98786.94
2023-03-31T06:32:02.243Z,98787.78
2023-03-31T06:34:29.408Z,98785.09
2023-03-31T06:36:56.601Z,98787.44
2023-03-31T06:39:24.754Z,98781.88
2023-03-31T06:41:53.510Z,98789.91
2023-03-31T06:44:27.049Z,98784.22
2023-03-31T06:46:54.945Z,98783.38
2023-03-31T06:49:22.045Z,98796.56
2023-03-31T06:51:49.149Z,98793.75
2023-03-31T06:54:16.352Z,98797.03
2023-03-31T06:56:43.408Z,98798.72
2023-03-31T06:59:10.481Z,98804.91
2023-03-31T07:01:39.288Z,98805.72
2023-03-31T07:04:06.465Z,98795.03
2023-03-31T07:06:34.305Z,98809.25
2023-03-31T07:09:01.444Z,98798.72
2023-03-31T07:11:28.564Z,98798.53
2023-03-31T07:13:55.734Z,98809.06
2023-03-31T07:16:23.636Z,98810.75
2023-03-31T07:18:53.923Z,98817.94
2023-03-31T07:21:21.503Z,98826.78
2023-03-31T07:23:48.699Z,98815.72
2023-03-31T07:26:15.985Z,98816.22
2023-03-31T07:28:43.117Z,98817.50
2023-03-31T07:31:11.339Z,98830.38
2023-03-31T07:33:38.430Z,98822.34
2023-03-31T07:36:12.850Z,98820.13
2023-03-31T07:38:41.942Z,98811.75
2023-03-31T07:41:13.427Z,98807.25
2023-03-31T07:43:40.909Z,98805.41
2023-03-31T07:46:14.038Z,98806.25
2023-03-31T07:48:41.307Z,98794.72
2023-03-31T07:51:08.534Z,98798.38
2023-03-31T07:53:37.181Z,98791.00
2023-03-31T07:56:04.482Z,98783.63
2023-03-31T07:58:31.695Z,98776.63
2023-03-31T08:00:58.981Z,98768.41
2023-03-31T08:03:26.476Z,98755.22
2023-03-31T08:05:54.157Z,98747.84
2023-03-31T08:08:22.358Z,98757.16
2023-03-31T08:10:49.548Z,98759.84
2023-03-31T08:13:16.662Z,98749.97
2023-03-31T08:15:43.860Z,98739.28
2023-03-31T08:18:10.960Z,98716.22
2023-03-31T08:20:39.365Z,98709.00
2023-03-31T08:23:09.191Z,98713.19
2023-03-31T08:25:36.322Z,98706.16
2023-03-31T08:28:03.395Z,98713.34
2023-03-31T08:30:30.486Z,98717.53
2023-03-31T08:32:57.620Z,98735.91
2023-03-31T08:35:24.672Z,98759.97
2023-03-31T08:37:51.728Z,98775.19
2023-03-31T08:40:22.141Z,98779.34
2023-03-31T08:42:50.886Z,98801.97
2023-03-31T08:45:22.231Z,98784.34
2023-03-31T08:47:52.452Z,98792.00
2023-03-31T08:50:22.136Z,98783.78
2023-03-31T08:52:52.899Z,98761.47
2023-03-31T08:55:24.042Z,98763.00
2023-03-31T08:57:51.702Z,98753.16
2023-03-31T09:00:19.082Z,98733.31
2023-03-31T09:02:52.842Z,98717.59
2023-03-31T09:05:20.053Z,98719.44
2023-03-31T09:07:59.348Z,98723.50
2023-03-31T09:10:37.780Z,98704.09
2023-03-31T09:13:23.765Z,98695.69
2023-03-31T09:15:56.230Z,98678.59
2023-03-31T09:18:25.205Z,98685.63
2023-03-31T09:20:53.520Z,98673.91
2023-03-31T09:23:36.406Z,98650.81
2023-03-31T09:26:04.459Z,98623.38
2023-03-31T09:28:36.278Z,98669.19
2023-03-31T09:31:08.363Z,98668.25
2023-03-31T09:33:37.715Z,98683.94
2023-03-31T09:36:13.626Z,98677.81
2023-03-31T09:38:42.170Z,98707.56
2023-03-31T09:41:09.576Z,98731.97
2023-03-31T09:43:38.440Z,98728.63
2023-03-31T09:46:15.872Z,98727.91
2023-03-31T09:48:50.709Z,98749.03
2023-03-31T09:51:20.614Z,98740.72
2023-03-31T09:53:53.811Z,98750.78
2023-03-31T09:56:39.558Z,98738.31
2023-03-31T09:59:06.593Z,98752.00
2023-03-31T10:01:35.965Z,98763.31
2023-03-31T10:04:07.458Z,98762.78
2023-03-31T10:06:40.472Z,98745.56
2023-03-31T10:09:10.651Z,98729.63
2023-03-31T10:11:38.064Z,98756.28
2023-03-31T10:14:07.040Z,98737.38
2023-03-31T10:16:35.228Z,98727.09
2023-03-31T10:19:20.550Z,98714.19
2023-03-31T10:21:48.564Z,98686.47
2023-03-31T10:24:19.438Z,98668.41
2023-03-31T10:26:49.208Z,98664.91
2023-03-31T10:29:22.038Z,98669.03
2023-03-31T10:31:49.219Z,98653.31
2023-03-31T10:34:19.403Z,98655.81
2023-03-31T10:36:48.237Z,98661.22
2023-03-31T10:39:15.993Z,98685.97
2023-03-31T10:41:43.364Z,98689.09
2023-03-31T10:44:30.474Z,98669.63
2023-03-31T10:47:03.696Z,98651.63
2023-03-31T10:49:30.956Z,98658.03
2023-03-31T10:51:59.523Z,98663.00
2023-03-31T10:54:26.765Z,98632.97
2023-03-31T10:56:56.729Z,98612.47
2023-03-31T10:59:46.831Z,98601.47
2023-03-31T11:02:20.034Z,98607.66
2023-03-31T11:04:49.984Z,98583.25
2023-03-31T11:07:19.859Z,98577.63
2023-03-31T11:09:50.015Z,98580.44
2023-03-31T11:12:36.389Z,98524.53
2023-03-31T11:15:10.864Z,98491.47
2023-03-31T11:17:56.804Z,98477.16
2023-03-31T11:20:49.437Z,98459.56
2023-03-31T11:23:35.086Z,98470.22
2023-03-31T11:26:05.393Z,98476.34
2023-03-31T11:28:38.399Z,98451.97
2023-03-31T11:31:08.622Z,98440.94
2023-03-31T11:33:36.093Z,98435.53
2023-03-31T11:36:26.069Z,98421.72
2023-03-31T11:39:03.897Z,98402.41
2023-03-31T11:42:03.468Z,98384.97
2023-03-31T11:44:36.422Z,98367.13
2023-03-31T11:47:08.697Z,98381.16
2023-03-31T11:49:39.680Z,98358.56
2023-03-31T11:52:17.768Z,98338.78
2023-03-31T11:54:56.879Z,98319.16
2023-03-31T11:57:29.274Z,98289.66
2023-03-31T11:59:59.144Z,98239.75
2023-03-31T12:02:38.240Z,98215.19
2023-03-31T12:05:06.963Z,98211.97
2023-03-31T12:07:39.620Z,98196.31
2023-03-31T12:10:20.252Z,98189.59
2023-03-31T12:13:01.240Z,98184.47
2023-03-31T12:15:32.557Z,98167.03
2023-03-31T12:18:01.816Z,98134.56
2023-03-31T12:20:29.032Z,98127.19
2023-03-31T12:22:57.809Z,98055.19
2023-03-31T12:25:28.063Z,98020.44
2023-03-31T12:27:56.584Z,97989.22
2023-03-31T12:30:31.055Z,97943.72
2023-03-31T12:33:14.472Z,97927.91
2023-03-31T12:35:53.769Z,97871.63
2023-03-31T12:38:23.873Z,97851.19
2023-03-31T12:40:57.969Z,97816.81
2023-03-31T12:43:33.342Z,97801.66
2023-03-31T12:46:08.652Z,97746.56
2023-03-31T12:48:35.833Z,97678.31
2023-03-31T12:51:06.152Z,97626.00
2023-03-31T12:53:48.590Z,97568.56
2023-03-31T12:56:15.740Z,97565.13
2023-03-31T12:58:43.818Z,97524.91
2023-03-31T13:01:19.159Z,97544.69
2023-03-31T13:03:46.352Z,97509.50
2023-03-31T13:06:25.531Z,97463.22
2023-03-31T13:08:54.251Z,97442.72
2023-03-31T13:11:33.268Z,97517.88
2023-03-31T13:14:02.355Z,97597.97
2023-03-31T13:16:30.469Z,97665.41
2023-03-31T13:18:57.915Z,97718.47
2023-03-31T13:21:25.491Z,97730.13
2023-03-31T13:23:53.671Z,97785.00
2023-03-31T13:26:40.721Z,97795.09
2023-03-31T13:29:17.517Z,97764.00
2023-03-31T13:31:59.973Z,97775.78
2023-03-31T13:34:40.530Z,97798.03
2023-03-31T13:37:26.341Z,97814.53
2023-03-31T13:40:18.611Z,97861.53
2023-03-31T13:42:45.659Z,97886.66
2023-03-31T13:45:23.618Z,97937.13
2023-03-31T13:48:03.024Z,97973.56
2023-03-31T13:50:48.661Z,98002.03
2023-03-31T13:53:15.908Z,98026.78
2023-03-31T13:55:46.681Z,98064.72
2023-03-31T13:58:34.925Z,98063.47
2023-03-31T14:01:09.489Z,98065.09
2023-03-31T14:04:02.861Z,98083.06
2023-03-31T14:06:36.060Z,98068.19
2023-03-31T14:09:07.837Z,98078.69
2023-03-31T14:11:34.895Z,98066.34
2023-03-31T14:14:03.758Z,98062.41
2023-03-31T14:16:32.983Z,98088.59
2023-03-31T14:19:18.890Z,98099.25
2023-03-31T14:21:54.282Z,98055.13
2023-03-31T14:24:36.676Z,98064.19
2023-03-31T14:27:06.796Z,98045.75
2023-03-31T14:29:39.830Z,98023.28
2023-03-31T14:32:33.262Z,97987.44
2023-03-31T14:35:06.452Z,97976.72
2023-03-31T14:37:35.120Z,97979.19
2023-03-31T14:40:03.817Z,97974.25
2023-03-31T14:42:40.591Z,97975.66
2023-03-31T14:45:16.561Z,97978.19
2023-03-31T14:47:53.024Z,97966.22
2023-03-31T14:50:20.222Z,97973.25
2023-03-31T14:52:48.118Z,97967.47
2023-03-31T14:55:16.295Z,97951.50
2023-03-31T14:57:44.556Z,97957.91
2023-03-31T15:00:14.429Z,97960.50
2023-03-31T15:02:43.299Z,97948.16
2023-03-31T15:05:22.538Z,97937.47
2023-03-31T15:07:49.779Z,97933.28
2023-03-31T15:10:20.380Z,97938.25
2023-03-31T15:12:48.827Z,97941.97
2023-03-31T15:15:17.617Z,97946.50
2023-03-31T15:17:46.058Z,97949.72
2023-03-31T15:20:28.234Z,97936.97
2023-03-31T15:22:56.840Z,97922.56
2023-03-31T15:25:27.247Z,97926.69
2023-03-31T15:27:58.091Z,97913.09
2023-03-31T15:30:27.545Z,97914.50
2023-03-31T15:32:58.952Z,97897.44
2023-03-31T15:35:41.923Z,97858.66
2023-03-31T15:38:11.681Z,97880.63
2023-03-31T15:40:41.017Z,97860.34
2023-03-31T15:43:24.453Z,97871.09
2023-03-31T15:45:53.542Z,97860.75
2023-03-31T15:48:23.769Z,97867.78
2023-03-31T15:50:51.806Z,97885.16
2023-03-31T15:53:30.782Z,97895.41
2023-03-31T15:55:59.960Z,97864.22
2023-03-31T15:58:47.221Z,97865.72
2023-03-31T16:01:15.775Z,97832.22
2023-03-31T16:03:44.572Z,97816.63
2023-03-31T16:06:23.931Z,97809.03
2023-03-31T16:08:59.458Z,97792.94
2023-03-31T16:11:33.266Z,97799.56
2023-03-31T16:14:01.949Z,97788.47
2023-03-31T16:16:29.767Z,97783.56
2023-03-31T16:19:04.111Z,97777.13
2023-03-31T16:21:43.161Z,97770.16
2023-03-31T16:24:11.055Z,97753.84
2023-03-31T16:26:38.199Z,97760.63
2023-03-31T16:29:05.336Z,97749.53
2023-03-31T16:31:35.514Z,97730.53
2023-03-31T16:34:05.039Z,97723.31
2023-03-31T16:36:32.343Z,97718.41
2023-03-31T16:39:01.874Z,97716.19
2023-03-31T16:41:30.005Z,97711.66
2023-03-31T16:43:57.164Z,97707.16
2023-03-31T16:46:24.485Z,97691.84
2023-03-31T16:48:52.124Z,97683.19
2023-03-31T16:51:19.565Z,97659.91
2023-03-31T16:53:47.269Z,97640.94
2023-03-31T16:56:14.483Z,97636.41
2023-03-31T16:58:42.837Z,97629.91
2023-03-31T17:01:10.736Z,97623.09
2023-03-31T17:03:39.813Z,97607.84
2023-03-31T17:06:08.388Z,97588.31
2023-03-31T17:08:35.558Z,97603.00
2023-03-31T17:11:04.497Z,97586.91
2023-03-31T17:13:32.540Z,97583.03
2023-03-31T17:16:13.096Z,97569.84
2023-03-31T17:18:44.578Z,97562.25
2023-03-31T17:21:13.723Z,97568.47
2023-03-31T17:23:42.615Z,97562.94
2023-03-31T17:26:10.597Z,97575.09
2023-03-31T17:28:37.756Z,97572.25
2023-03-31T17:31:12.088Z,97587.94
2023-03-31T17:33:40.059Z,97579.09
2023-03-31T17:36:07.378Z,97570.69
2023-03-31T17:38:34.729Z,97589.41
2023-03-31T17:41:05.729Z,97590.47
2023-03-31T17:43:33.394Z,97591.13
2023-03-31T17:46:09.918Z,97604.91
2023-03-31T17:48:39.137Z,97606.97
2023-03-31T17:51:07.970Z,97619.16
2023-03-31T17:53:35.628Z,97630.47
2023-03-31T17:56:03.893Z,97637.47
2023-03-31T17:58:31.334Z,97640.75
2023-03-31T18:00:58.652Z,97653.72
2023-03-31T18:03:29.184Z,97660.91
2023-03-31T18:05:56.758Z,97655.16
2023-03-31T18:08:24.180Z,97665.03
2023-03-31T18:10:51.471Z,97655.16
2023-03-31T18:13:18.532Z,97666.88
2023-03-31T18:15:48.438Z,97671.63
2023-03-31T18:18:15.793Z,97675.94
2023-03-31T18:20:42.880Z,97679.25
2023-03-31T18:23:10.206Z,97687.28
2023-03-31T18:25:38.288Z,97697.16
2023-03-31T18:28:05.466Z,97689.31
2023-03-31T18:30:32.993Z,97696.53
2023-03-31T18:33:00.292Z,97699.19
2023-03-31T18:35:27.648Z,97692.41
2023-03-31T18:37:54.743Z,97709.09
2023-03-31T18:40:22.048Z,97690.53
2023-03-31T18:42:49.428Z,97702.31
2023-03-31T18:45:16.840Z,97701.25
2023-03-31T18:47:44.015Z,97703.34
2023-03-31T18:50:13.327Z,97708.69
2023-03-31T18:52:40.439Z,97696.75
2023-03-31T18:55:07.686Z,97707.25
2023-03-31T18:57:34.830Z,97690.16
2023-03-31T19:00:02.033Z,97694.28
2023-03-31T19:02:29.173Z,97693.03
2023-03-31T19:04:56.331Z,97699.84
2023-03-31T19:07:23.366Z,97700.44
2023-03-31T19:09:51.286Z,97695.53
2023-03-31T19:12:18.388Z,97701.50
2023-03-31T19:14:45.465Z,97702.53
2023-03-31T19:17:12.506Z,97695.53
2023-03-31T19:19:39.631Z,97692.84
2023-03-31T19:22:07.107Z,97705.22
2023-03-31T19:24:34.219Z,97691.81
2023-03-31T19:27:01.300Z,97693.47
2023-03-31T19:29:30.290Z,97688.13
2023-03-31T19:31:57.802Z,97693.47
2023-03-31T19:34:24.915Z,97683.16
2023-03-31T19:36:51.973Z,97679.47
2023-03-31T19:39:19.118Z,97698.84
2023-03-31T19:41:46.525Z,97700.88
2023-03-31T19:44:13.656Z,97717.97
2023-03-31T19:46:41.239Z,97719.44
2023-03-31T19:49:08.301Z,97754.44
2023-03-31T19:51:36.091Z,97779.97
2023-03-31T19:54:03.119Z,97794.75
2023-03-31T19:56:31.613Z,97828.69
2023-03-31T19:58:59.338Z,97879.13
2023-03-31T20:01:27.385Z,97920.25
2023-03-31T20:03:55.954Z,97936.03
2023-03-31T20:06:24.306Z,97951.63
2023-03-31T20:08:52.588Z,97977.16
2023-03-31T20:11:20.749Z,97992.34
2023-03-31T20:13:48.291Z,98002.75
2023-03-31T20:16:18.235Z,98019.19
2023-03-31T20:18:49.307Z,98026.13
2023-03-31T20:21:20.400Z,98027.50
2023-03-31T20:23:47.900Z,98037.78
2023-03-31T20:26:17.462Z,98042.50
2023-03-31T20:28:45.119Z,98052.22
2023-03-31T20:31:17.677Z,98058.66
2023-03-31T20:33:46.194Z,98062.47
2023-03-31T20:36:14.581Z,98073.75
2023-03-31T20:38:42.893Z,98087.66
2023-03-31T20:41:10.666Z,98102.44
2023-03-31T20:43:38.275Z,98118.06
2023-03-31T20:46:06.463Z,98122.81
2023-03-31T20:48:37.884Z,98140.94
2023-03-31T20:51:06.153Z,98148.94
2023-03-31T20:53:41.538Z,98157.16
2023-03-31T20:56:09.586Z,98156.91
2023-03-31T20:58:37.373Z,98177.63
2023-03-31T21:01:05.516Z,98184.19
2023-03-31T21:03:32.941Z,98202.44
2023-03-31T21:06:11.536Z,98216.25
2023-03-31T21:08:39.623Z,98216.63
2023-03-31T21:11:07.281Z,98230.34
2023-03-31T21:13:34.547Z,98236.25
2023-03-31T21:16:01.611Z,98246.94
2023-03-31T21:18:29.710Z,98257.28
2023-03-31T21:21:01.490Z,98266.66
2023-03-31T21:23:29.402Z,98266.66
2023-03-31T21:25:58.020Z,98286.84
2023-03-31T21:28:26.468Z,98288.31
2023-03-31T21:30:54.537Z,98304.97
2023-03-31T21:33:22.245Z,98313.63
2023-03-31T21:35:49.349Z,98325.59
2023-03-31T21:38:16.906Z,98332.34
2023-03-31T21:40:43.950Z,98342.03
2023-03-31T21:43:11.238Z,98332.91
2023-03-31T21:45:38.680Z,98357.22
2023-03-31T21:48:06.772Z,98368.75
2023-03-31T21:50:34.671Z,98365.88
2023-03-31T21:53:04.748Z,98363.00
2023-03-31T21:55:32.472Z,98363.41
2023-03-31T21:57:59.886Z,98364.13
2023-03-31T22:00:28.008Z,98383.84
2023-03-31T22:03:06.342Z,98391.03
2023-03-31T22:05:42.116Z,98380.16
2023-03-31T22:08:09.225Z,98404.84
2023-03-31T22:10:36.784Z,98403.56
2023-03-31T22:13:03.909Z,98409.06
2023-03-31T22:15:31.479Z,98421.25
2023-03-31T22:17:58.749Z,98420.88
2023-03-31T22:20:25.853Z,98426.59
2023-03-31T22:22:53.296Z,98427.25
2023-03-31T22:25:21.218Z,98438.56
2023-03-31T22:27:48.269Z,98431.94
2023-03-31T22:30:15.522Z,98436.63
2023-03-31T22:32:42.584Z,98444.63
2023-03-31T22:35:09.753Z,98450.47
2023-03-31T22:37:36.896Z,98446.31
2023-03-31T22:40:04.528Z,98458.47
2023-03-31T22:42:31.672Z,98443.91
2023-03-31T22:44:58.721Z,98433.97
2023-03-31T22:47:25.919Z,98432.69
2023-03-31T22:49:53.020Z,98431.00
2023-03-31T22:52:20.134Z,98432.84
2023-03-31T22:54:47.260Z,98421.69
2023-03-31T22:57:14.558Z,98428.88
2023-03-31T22:59:41.735Z,98419.09
2023-03-31T23:02:08.820Z,98417.25
2023-03-31T23:04:36.111Z,98424.25
2023-03-31T23:07:03.148Z,98416.97
2023-03-31T23:09:30.516Z,98418.91
2023-03-31T23:11:57.540Z,98417.06
2023-03-31T23:14:24.649Z,98413.41
2023-03-31T23:16:52.654Z,98417.34
2023-03-31T23:19:19.863Z,98398.56
2023-03-31T23:21:46.943Z,98403.91
2023-03-31T23:24:13.985Z,98398.56
2023-03-31T23:26:41.218Z,98404.09
2023-03-31T23:29:08.251Z,98405.38
2023-03-31T23:31:35.706Z,98402.88
2023-03-31T23:34:02.859Z,98398.75
2023-03-31T23:36:31.192Z,98399.38
2023-03-31T23:38:58.415Z,98402.06
2023-03-31T23:41:26.489Z,98402.44
2023-03-31T23:43:54.626Z,98395.78
2023-03-31T23:46:21.844Z,98392.09
2023-03-31T23:48:49.189Z,98400.28
2023-03-31T23:51:16.295Z,98394.13
2023-03-31T23:53:43.337Z,98401.31
2023-03-31T23:56:11.623Z,98392.00
2023-03-31T23:58:39.238Z,98402.13
